Time;durP1;ratioP1;P1;durP2;ratioP2;P2;SDS_P1;SDS_P2;PMS_P1;PMS_P2;Temp;Humidity;BMP_temperature;BMP_pressure;BME280_temperature;BME280_humidity;BME280_pressure;Samples;Min_cycle;Max_cycle;Signal;HPM_P1;HPM_P2
2022/10/05 00:01:31;;;;;;;0.75;0.73;;;;;;;8.13;82.76;100593.91;5094434;28;20048;-64
2022/10/05 00:04:10;;;;;;;1.85;1.15;;;;;;;8.11;83.71;100604.03;5094515;28;20052;-64
2022/10/05 00:06:39;;;;;;;6.85;1.83;;;;;;;8.04;83.47;100610.66;5094283;28;20117;-64
2022/10/05 00:09:13;;;;;;;0.75;0.75;;;;;;;8.05;83.51;100619.16;5094247;28;20054;-64
2022/10/05 00:11:42;;;;;;;1.55;1.45;;;;;;;8.02;82.82;100602.16;5094252;28;20097;-64
2022/10/05 00:14:17;;;;;;;0.85;0.85;;;;;;;7.99;82.90;100606.31;5094450;28;20052;-64
2022/10/05 00:16:48;;;;;;;0.55;0.55;;;;;;;7.94;82.51;100605.34;5094486;28;20048;-64
2022/10/05 00:19:22;;;;;;;1.55;0.63;;;;;;;7.88;82.64;100606.03;5094447;28;20440;-64
2022/10/05 00:21:50;;;;;;;0.77;0.77;;;;;;;7.82;82.72;100605.03;5094085;28;20508;-64
2022/10/05 00:24:20;;;;;;;0.55;0.55;;;;;;;7.74;82.23;100612.47;5093932;28;20033;-64
2022/10/05 00:26:49;;;;;;;;;;;;;;;7.77;82.80;100610.00;5094934;28;20079;-64
2022/10/05 00:29:25;;;;;;;0.50;0.50;;;;;;;7.79;82.43;100608.34;5094019;28;20393;-64
2022/10/05 00:31:55;;;;;;;1.15;0.93;;;;;;;7.79;82.52;100610.03;5092704;28;20048;-64
2022/10/05 00:34:26;;;;;;;0.73;0.73;;;;;;;7.76;82.26;100617.56;5093933;28;20079;-64
2022/10/05 00:36:54;;;;;;;2.42;1.48;;;;;;;7.77;82.01;100620.16;5092947;28;20058;-64
2022/10/05 00:39:23;;;;;;;3.38;1.63;;;;;;;7.79;82.36;100621.06;5093818;28;20047;-64
2022/10/05 00:42:13;;;;;;;1.90;1.33;;;;;;;7.75;82.09;100614.16;5093815;28;20048;-64
2022/10/05 00:44:48;;;;;;;0.73;0.70;;;;;;;7.75;82.22;100613.31;5094243;28;20039;-64
2022/10/05 00:47:32;;;;;;;0.60;0.60;;;;;;;7.72;81.62;100616.66;5094055;28;20597;-64
2022/10/05 00:50:18;;;;;;;1.45;1.35;;;;;;;7.72;81.91;100624.28;5094048;28;20044;-64
2022/10/05 00:53:01;;;;;;;0.50;0.50;;;;;;;7.75;81.68;100623.50;5094003;28;20052;-64
2022/10/05 00:55:42;;;;;;;0.47;0.47;;;;;;;7.72;81.88;100628.47;5092454;28;20048;-64
2022/10/05 00:58:22;;;;;;;0.73;0.73;;;;;;;7.62;81.15;100622.31;5093652;28;20055;-64
2022/10/05 01:01:04;;;;;;;1.85;1.30;;;;;;;7.53;81.01;100622.06;5093917;28;20071;-64
2022/10/05 01:03:47;;;;;;;2.25;1.05;;;;;;;7.46;81.62;100610.03;5092467;28;20056;-64
2022/10/05 01:06:25;;;;;;;0.30;0.30;;;;;;;7.49;81.12;100620.25;5092655;28;20040;-64
2022/10/05 01:09:05;;;;;;;0.68;0.68;;;;;;;7.47;82.02;100611.72;5092190;28;20398;-64
2022/10/05 01:11:42;;;;;;;1.85;1.08;;;;;;;7.45;81.33;100618.44;5093486;28;20040;-64
2022/10/05 01:14:20;;;;;;;1.27;1.17;;;;;;;7.39;81.16;100615.72;5093467;28;20067;-64
2022/10/05 01:16:56;;;;;;;0.90;0.90;;;;;;;7.42;82.22;100623.44;5093472;28;20516;-64
2022/10/05 01:19:57;;;;;;;1.52;1.40;;;;;;;7.38;81.87;100622.50;5097824;28;20127;-64
2022/10/05 01:22:43;;;;;;;1.48;0.95;;;;;;;7.29;81.43;100621.41;5097521;28;20052;-64
2022/10/05 01:25:23;;;;;;;0.40;0.40;;;;;;;7.25;81.72;100619.59;5097760;28;20106;-64
2022/10/05 01:28:03;;;;;;;0.25;0.25;;;;;;;7.20;81.84;100605.91;5097643;28;20055;-64
2022/10/05 01:30:38;;;;;;;0.70;0.70;;;;;;;7.20;81.71;100613.50;5097648;28;20493;-64
2022/10/05 01:33:17;;;;;;;2.25;1.70;;;;;;;7.16;82.40;100609.19;5097682;28;20040;-64
2022/10/05 01:35:55;;;;;;;0.38;0.38;;;;;;;7.20;81.60;100616.91;5096390;28;20101;-64
2022/10/05 01:38:36;;;;;;;0.60;0.60;;;;;;;7.24;81.82;100630.56;5097111;28;20056;-64
2022/10/05 01:41:18;;;;;;;0.40;0.40;;;;;;;7.27;82.39;100618.81;5097236;28;20052;-64
2022/10/05 01:43:53;;;;;;;0.57;0.57;;;;;;;7.30;82.23;100611.28;5096214;28;20078;-63
2022/10/05 01:46:31;;;;;;;0.75;0.65;;;;;;;7.36;82.50;100610.59;5095789;28;20516;-63
2022/10/05 01:49:17;;;;;;;0.43;0.35;;;;;;;7.42;82.30;100613.28;5097217;28;20051;-65
2022/10/05 01:51:59;;;;;;;0.90;0.90;;;;;;;7.46;83.14;100604.09;5096966;28;20056;-65
2022/10/05 01:54:45;;;;;;;0.50;0.50;;;;;;;7.50;82.66;100603.34;5095651;28;20040;-65
2022/10/05 01:57:22;;;;;;;0.55;0.55;;;;;;;7.43;82.67;100605.72;5095642;28;20051;-65
2022/10/05 02:00:03;;;;;;;0.73;0.73;;;;;;;7.39;81.89;100603.91;5095561;28;20575;-65
2022/10/05 02:02:47;;;;;;;7.97;2.45;;;;;;;7.42;82.55;100588.75;5096727;28;20054;-65
2022/10/05 02:05:21;;;;;;;0.50;0.50;;;;;;;7.39;82.49;100595.41;5096861;28;20044;-65
2022/10/05 02:07:57;;;;;;;0.82;0.60;;;;;;;7.32;82.29;100591.00;5095463;28;20060;-65
2022/10/05 02:10:31;;;;;;;0.70;0.70;;;;;;;7.38;82.04;100588.63;5095700;28;20142;-65
2022/10/05 02:13:09;;;;;;;0.60;0.60;;;;;;;7.39;82.49;100595.41;5096487;28;20044;-65
2022/10/05 02:15:44;;;;;;;0.95;0.90;;;;;;;7.43;82.64;100594.69;5095644;28;20127;-65
2022/10/05 02:18:19;;;;;;;0.35;0.35;;;;;;;7.46;82.48;100594.78;5096340;28;20051;-64
2022/10/05 02:20:52;;;;;;;1.58;1.48;;;;;;;7.46;82.17;100593.94;5095233;28;20040;-64
2022/10/05 02:23:26;;;;;;;1.45;0.77;;;;;;;7.44;81.88;100598.94;5096425;28;20052;-65
2022/10/05 02:25:56;;;;;;;1.23;0.88;;;;;;;7.39;81.81;100601.38;5096264;28;20054;-64
2022/10/05 02:28:32;;;;;;;1.33;1.23;;;;;;;7.43;82.42;100589.63;5096275;28;20051;-64
2022/10/05 02:31:07;;;;;;;0.60;0.60;;;;;;;7.37;82.03;100591.97;5095102;28;20040;-65
2022/10/05 02:33:36;;;;;;;0.60;0.60;;;;;;;7.35;82.48;100597.03;5096468;28;20048;-65
2022/10/05 02:36:16;;;;;;;0.40;0.40;;;;;;;7.28;82.01;100589.19;5095272;28;20048;-65
2022/10/05 02:38:59;;;;;;;1.17;1.08;;;;;;;7.25;82.72;100600.13;5096318;28;20457;-65
2022/10/05 02:41:38;;;;;;;1.65;0.88;;;;;;;7.27;82.38;100602.75;5096325;28;20556;-65
2022/10/05 02:44:15;;;;;;;0.70;0.70;;;;;;;7.28;82.57;100604.44;5096028;28;20128;-65
2022/10/05 02:46:53;;;;;;;0.35;0.35;;;;;;;7.28;82.52;100606.97;5094937;28;20131;-65
2022/10/05 02:49:33;;;;;;;0.40;0.40;;;;;;;7.30;82.25;100610.41;5095774;28;20058;-65
2022/10/05 02:52:08;;;;;;;0.50;0.50;;;;;;;7.28;82.94;100625.63;5094978;28;20058;-65
2022/10/05 02:54:47;;;;;;;1.42;1.15;;;;;;;7.28;82.85;100629.81;5094446;28;20036;-65
2022/10/05 02:57:26;;;;;;;0.32;0.32;;;;;;;7.30;82.92;100621.44;5095731;28;20040;-65
2022/10/05 03:00:06;;;;;;;1.10;1.00;;;;;;;7.32;83.18;100622.34;5095835;28;20048;-65
2022/10/05 03:02:44;;;;;;;0.63;0.63;;;;;;;7.36;82.58;100618.22;5095829;28;20048;-65
2022/10/05 03:05:20;;;;;;;2.95;1.63;;;;;;;7.38;82.28;100606.41;5095393;28;20489;-65
2022/10/05 03:07:59;;;;;;;0.52;0.52;;;;;;;7.36;82.72;100605.53;5095518;28;20121;-65
2022/10/05 03:10:37;;;;;;;0.70;0.70;;;;;;;7.26;82.94;100590.84;5094474;28;20052;-64
2022/10/05 03:13:13;;;;;;;0.50;0.50;;;;;;;7.24;82.66;100582.34;5111189;28;20567;-65
2022/10/05 03:16:03;;;;;;;0.60;0.60;;;;;;;7.21;82.82;100577.16;5095303;28;20048;-65
2022/10/05 03:18:45;;;;;;;0.50;0.50;;;;;;;7.03;82.36;100586.84;5094103;28;20050;-65
2022/10/05 03:21:31;;;;;;;0.38;0.38;;;;;;;6.95;82.49;100580.66;5093934;28;20041;-65
2022/10/05 03:24:18;;;;;;;1.17;1.08;;;;;;;6.88;82.58;100576.25;5093941;28;20071;-65
2022/10/05 03:26:56;;;;;;;1.27;1.17;;;;;;;6.80;82.76;100570.06;5093869;28;20044;-65
2022/10/05 03:29:33;;;;;;;1.20;1.10;;;;;;;6.63;82.22;100560.31;5094420;28;20444;-65
2022/10/05 03:32:18;;;;;;;1.17;0.93;;;;;;;6.56;82.23;100557.56;5094905;28;20566;-65
2022/10/05 03:34:54;;;;;;;0.65;0.65;;;;;;;6.59;83.12;100553.44;5093764;28;20047;-65
2022/10/05 03:37:34;;;;;;;1.35;1.25;;;;;;;6.70;82.83;100552.06;5095187;28;20044;-65
2022/10/05 03:40:10;;;;;;;0.30;0.30;;;;;;;6.79;82.97;100555.69;5093243;28;20074;-65
2022/10/05 03:42:58;;;;;;;1.17;0.75;;;;;;;6.87;83.16;100544.94;5093544;28;20043;-65
2022/10/05 03:45:33;;;;;;;0.52;0.52;;;;;;;6.92;83.20;100527.28;5093440;28;20044;-65
2022/10/05 03:48:08;;;;;;;1.13;1.13;;;;;;;6.97;83.17;100525.75;5093487;28;20506;-65
2022/10/05 03:50:49;;;;;;;0.90;0.90;;;;;;;6.93;82.42;100529.03;5094717;28;20047;-65
2022/10/05 03:53:20;;;;;;;2.78;1.42;;;;;;;6.98;82.85;100527.47;5093744;28;20123;-65
2022/10/05 03:55:58;;;;;;;0.52;0.52;;;;;;;7.01;82.83;100532.59;5094540;28;20048;-65
2022/10/05 03:58:39;;;;;;;0.60;0.60;;;;;;;7.04;83.19;100522.53;5094454;28;20138;-64
2022/10/05 04:01:13;;;;;;;2.90;2.10;;;;;;;6.99;83.35;100508.88;5093604;28;20043;-65
2022/10/05 04:03:46;;;;;;;4.05;3.53;;;;;;;7.05;82.96;100519.19;5093502;28;20047;-64
2022/10/05 04:06:22;;;;;;;2.25;2.05;;;;;;;7.04;82.73;100517.47;5093129;28;20040;-65
2022/10/05 04:08:57;;;;;;;2.38;2.17;;;;;;;7.04;83.26;100527.63;5094013;28;20047;-65
2022/10/05 04:11:31;;;;;;;1.60;0.98;;;;;;;7.05;83.26;100529.34;5094302;28;20054;-65
2022/10/05 04:14:06;;;;;;;1.17;0.93;;;;;;;7.05;83.54;100544.59;5093442;28;20482;-65
2022/10/05 04:16:41;;;;;;;1.75;0.90;;;;;;;7.05;83.04;100549.66;5094308;28;20044;-65
2022/10/05 04:19:15;;;;;;;0.90;0.90;;;;;;;7.04;83.12;100547.94;5093336;28;20378;-65
2022/10/05 04:21:52;;;;;;;0.55;0.55;;;;;;;7.04;83.36;100547.94;5093033;28;20572;-65
2022/10/05 04:24:29;;;;;;;0.82;0.80;;;;;;;7.06;83.29;100548.81;5110046;28;20497;-65
2022/10/05 04:27:00;;;;;;;0.80;0.80;;;;;;;7.07;83.07;100560.72;5093048;28;20489;-65
2022/10/05 04:29:38;;;;;;;0.68;0.68;;;;;;;7.08;82.80;100580.22;5094373;28;20044;-65
2022/10/05 04:32:29;;;;;;;0.90;0.85;;;;;;;7.14;83.09;100580.34;5092786;28;20043;-65
2022/10/05 04:35:18;;;;;;;0.85;0.85;;;;;;;7.14;83.21;100580.34;5093840;28;20051;-65
2022/10/05 04:37:59;;;;;;;1.70;1.35;;;;;;;7.14;83.68;100590.50;5093040;28;20063;-65
2022/10/05 04:40:41;;;;;;;0.80;0.80;;;;;;;7.12;83.57;100592.16;5094158;28;20048;-65
2022/10/05 04:43:18;;;;;;;0.40;0.40;;;;;;;7.15;83.77;100592.25;5094049;28;20101;-65
2022/10/05 04:46:13;;;;;;;0.45;0.45;;;;;;;7.16;83.92;100609.19;5092817;28;20059;-65
2022/10/05 04:49:04;;;;;;;1.35;1.10;;;;;;;7.20;82.96;100610.97;5092753;28;20043;-65
2022/10/05 04:51:40;;;;;;;1.30;1.20;;;;;;;7.22;83.69;100620.34;5092487;28;20047;-65
2022/10/05 04:54:19;;;;;;;1.77;1.67;;;;;;;7.26;83.97;100626.41;5092463;28;20051;-65
2022/10/05 04:56:55;;;;;;;0.40;0.40;;;;;;;7.27;83.56;100633.22;5093665;28;20048;-65
2022/10/05 04:59:43;;;;;;;0.82;0.82;;;;;;;7.27;84.02;100640.81;5092500;28;20272;-65
2022/10/05 05:02:24;;;;;;;0.60;0.60;;;;;;;7.32;83.99;100624.00;5092462;28;20490;-65
2022/10/05 05:05:23;;;;;;;1.25;1.23;;;;;;;7.34;83.48;100630.00;5092381;28;20448;-65
2022/10/05 05:08:17;;;;;;;0.30;0.30;;;;;;;7.39;83.45;100638.59;5093148;28;20058;-65
2022/10/05 05:11:04;;;;;;;0.95;0.95;;;;;;;7.37;83.98;100640.22;5092354;28;20040;-65
2022/10/05 05:13:50;;;;;;;1.40;0.93;;;;;;;7.35;83.38;100646.94;5092633;28;20466;-65
2022/10/05 05:16:30;;;;;;;0.70;0.70;;;;;;;7.38;83.75;100652.13;5093713;28;20401;-65
2022/10/05 05:19:09;;;;;;;;;;;;;;;7.41;83.83;100657.28;5109994;28;20486;-65
2022/10/05 05:21:47;;;;;;;0.70;0.70;;;;;;;7.40;83.26;100655.56;5093805;28;19920;-65
2022/10/05 05:24:28;;;;;;;0.55;0.55;;;;;;;7.39;83.54;100654.69;5092515;28;20106;-65
2022/10/05 05:27:12;;;;;;;1.10;1.00;;;;;;;7.39;83.33;100654.69;5092086;28;20094;-65
2022/10/05 05:29:52;;;;;;;1.27;1.17;;;;;;;7.34;83.49;100655.41;5093377;28;20058;-65
2022/10/05 05:32:32;;;;;;;1.40;1.30;;;;;;;7.37;83.61;100660.53;5093589;28;20051;-65
2022/10/05 05:35:23;;;;;;;2.17;1.67;;;;;;;7.41;83.74;100672.53;5092358;28;20047;-65
2022/10/05 05:38:05;;;;;;;0.60;0.60;;;;;;;7.47;83.76;100667.59;5093349;28;20124;-65
2022/10/05 05:40:40;;;;;;;0.47;0.47;;;;;;;7.51;83.62;100661.78;5093542;28;20052;-65
2022/10/05 05:43:23;;;;;;;2.55;1.85;;;;;;;7.57;83.41;100661.09;5092288;28;20135;-65
2022/10/05 05:45:59;;;;;;;4.20;1.17;;;;;;;7.60;83.82;100664.59;5093477;28;20071;-65
2022/10/05 05:48:38;;;;;;;0.63;0.60;;;;;;;7.69;83.40;100659.75;5093238;28;20044;-65
2022/10/05 05:51:14;;;;;;;1.92;1.73;;;;;;;7.76;84.16;100650.59;5091935;28;20040;-65
2022/10/05 05:53:45;;;;;;;0.95;0.88;;;;;;;7.78;83.53;100654.03;5092225;28;20063;-65
2022/10/05 05:56:20;;;;;;;0.93;0.93;;;;;;;7.82;83.43;100660.94;5093377;28;20048;-65
2022/10/05 05:58:54;;;;;;;1.02;0.77;;;;;;;7.79;83.86;100661.72;5093026;28;20052;-65
2022/10/05 06:01:28;;;;;;;0.65;0.65;;;;;;;7.75;83.84;100659.06;5091893;28;20044;-65
2022/10/05 06:04:12;;;;;;;0.60;0.60;;;;;;;7.78;83.47;100669.28;5095043;28;20543;-65
2022/10/05 06:06:47;;;;;;;1.38;1.27;;;;;;;7.87;83.99;100664.47;5095351;28;20059;-65
2022/10/05 06:09:23;;;;;;;0.43;0.43;;;;;;;7.95;84.07;100663.81;5096449;28;20150;-65
2022/10/05 06:12:05;;;;;;;0.85;0.85;;;;;;;8.07;84.04;100659.06;5096758;28;20134;-65
2022/10/05 06:14:43;;;;;;;0.40;0.40;;;;;;;8.21;84.21;100661.06;5095253;28;20139;-65
2022/10/05 06:17:17;;;;;;;1.45;0.98;;;;;;;8.27;84.06;100656.16;5095295;28;20036;-65
2022/10/05 06:19:49;;;;;;;0.50;0.50;;;;;;;8.42;83.55;100664.16;5096408;28;20044;-65
2022/10/05 06:22:22;;;;;;;0.88;0.88;;;;;;;8.52;84.09;100663.53;5095534;28;20066;-65
2022/10/05 06:25:04;;;;;;;0.70;0.70;;;;;;;8.65;83.56;100665.56;5096271;28;20048;-65
2022/10/05 06:27:37;;;;;;;0.98;0.75;;;;;;;8.74;83.08;100668.28;5095495;28;20482;-65
2022/10/05 06:30:13;;;;;;;0.80;0.80;;;;;;;8.86;83.35;100660.06;5094693;28;20087;-67
2022/10/05 06:33:08;;;;;;;0.40;0.40;;;;;;;8.97;83.17;100667.13;5095778;28;20044;-66
2022/10/05 06:35:51;;;;;;;0.77;0.77;;;;;;;9.10;83.54;100673.31;5096452;28;20142;-65
2022/10/05 06:38:37;;;;;;;1.33;1.23;;;;;;;9.17;83.75;100667.53;5093958;28;20076;-66
2022/10/05 06:41:15;;;;;;;1.85;1.30;;;;;;;9.25;83.12;100671.97;5086261;28;20045;-65
2022/10/05 06:43:56;;;;;;;30.70;1.58;;;;;;;9.39;83.69;100664.59;5075937;28;20076;-66
2022/10/05 06:46:49;;;;;;;0.60;0.57;;;;;;;9.50;82.92;100667.38;5075918;28;20395;-66
2022/10/05 06:49:53;;;;;;;0.60;0.60;;;;;;;9.65;82.39;100670.19;5073701;28;20060;-66
2022/10/05 06:52:39;;;;;;;7.47;1.48;;;;;;;9.79;82.87;100664.50;5076087;28;20052;-67
2022/10/05 06:55:18;;;;;;;0.40;0.40;;;;;;;9.85;82.14;100656.13;5089769;28;20123;-66
2022/10/05 06:58:09;;;;;;;0.50;0.50;;;;;;;9.98;81.94;100647.88;5092811;28;20048;-67
2022/10/05 07:00:42;;;;;;;1.75;1.20;;;;;;;10.00;81.80;100651.28;5087965;28;20040;-66
2022/10/05 07:03:22;;;;;;;2.90;1.17;;;;;;;10.04;81.36;100648.81;5094333;28;20044;-66
2022/10/05 07:06:01;;;;;;;2.63;1.58;;;;;;;10.12;82.17;100651.53;5094419;28;20478;-66
2022/10/05 07:08:39;;;;;;;0.77;0.77;;;;;;;10.19;81.54;100650.81;5094080;28;20058;-66
2022/10/05 07:11:20;;;;;;;2.13;1.35;;;;;;;10.33;81.39;100667.19;5094399;28;20405;-66
2022/10/05 07:14:18;;;;;;;0.80;0.80;;;;;;;10.44;81.38;100675.84;5094132;28;20040;-65
2022/10/05 07:17:16;;;;;;;0.40;0.40;;;;;;;10.52;81.51;100679.41;5093167;28;20436;-65
2022/10/05 07:19:54;;;;;;;0.40;0.40;;;;;;;10.55;80.97;100670.94;5094211;28;20044;-65
2022/10/05 07:23:01;;;;;;;1.75;1.23;;;;;;;10.65;80.73;100676.19;5094051;28;20048;-65
2022/10/05 07:25:38;;;;;;;0.60;0.60;;;;;;;10.85;80.75;100667.94;5093578;28;20048;-67
2022/10/05 07:28:13;;;;;;;1.20;0.90;;;;;;;10.97;80.25;100657.91;5093806;28;20578;-65
2022/10/05 07:30:50;;;;;;;0.75;0.75;;;;;;;10.98;80.54;100659.63;5094117;28;20055;-65
2022/10/05 07:33:25;;;;;;;1.05;0.93;;;;;;;11.08;80.14;100661.47;5095234;28;20040;-65
2022/10/05 07:38:48;;;;;;;1.50;0.75;;;;;;;11.20;79.97;100659.94;5093962;28;20042;-65
2022/10/05 07:41:22;;;;;;;2.25;1.98;;;;;;;11.45;79.74;100684.94;5094234;28;20040;-66
2022/10/05 07:43:57;;;;;;;0.43;0.43;;;;;;;11.61;79.59;100686.00;5093575;28;20044;-65
2022/10/05 07:46:46;;;;;;;1.02;0.93;;;;;;;11.79;79.33;100685.34;5094965;28;20052;-65
2022/10/05 07:49:26;;;;;;;0.50;0.50;;;;;;;11.90;78.73;100684.59;5090555;28;20048;-65
2022/10/05 07:52:01;;;;;;;1.30;1.20;;;;;;;11.99;78.38;100682.16;5086414;28;20045;-66
2022/10/05 07:54:38;;;;;;;0.60;0.60;;;;;;;12.07;77.93;100677.94;5080502;28;20068;-66
2022/10/05 07:57:20;;;;;;;0.70;0.70;;;;;;;12.24;77.64;100684.94;5082196;28;20047;-65
2022/10/05 07:59:56;;;;;;;0.60;0.60;;;;;;;12.33;77.43;100680.75;5083849;28;20040;-66
2022/10/05 08:02:29;;;;;;;0.50;0.50;;;;;;;12.43;77.17;100684.25;5089776;28;20044;-65
2022/10/05 08:05:03;;;;;;;0.65;0.65;;;;;;;12.52;76.40;100681.75;5093399;28;20052;-66
2022/10/05 08:07:36;;;;;;;1.25;0.88;;;;;;;12.58;76.17;100679.22;5094228;28;20044;-65
2022/10/05 08:10:23;;;;;;;1.13;0.70;;;;;;;12.60;76.21;100672.41;5092804;28;20097;-65
2022/10/05 08:13:03;;;;;;;0.60;0.60;;;;;;;12.67;76.50;100671.59;5094381;28;20446;-65
2022/10/05 08:15:37;;;;;;;0.85;0.68;;;;;;;12.84;76.24;100675.13;5094112;28;20048;-65
2022/10/05 08:18:14;;;;;;;0.70;0.70;;;;;;;12.98;76.11;100673.50;5094384;28;20050;-66
2022/10/05 08:20:46;;;;;;;0.68;0.60;;;;;;;13.11;75.82;100674.44;5093378;28;20044;-66
2022/10/05 08:23:24;;;;;;;0.80;0.80;;;;;;;13.26;75.13;100671.97;5094046;28;20493;-65
2022/10/05 08:26:05;;;;;;;0.75;0.75;;;;;;;13.42;74.95;100666.91;5094311;28;20433;-65
2022/10/05 08:28:38;;;;;;;0.60;0.60;;;;;;;13.46;74.17;100659.22;5088018;28;20055;-66
2022/10/05 08:31:21;;;;;;;2.13;1.50;;;;;;;13.44;74.45;100667.75;5073849;28;20036;-66
2022/10/05 08:33:58;;;;;;;1.55;1.02;;;;;;;13.38;74.09;100675.44;5075296;28;20043;-66
2022/10/05 08:36:43;;;;;;;1.48;1.27;;;;;;;13.28;74.21;100676.25;5090681;28;20036;-65
2022/10/05 08:39:19;;;;;;;0.52;0.52;;;;;;;13.37;74.20;100673.72;5094002;28;20044;-66
2022/10/05 08:42:09;;;;;;;1.05;0.95;;;;;;;13.61;74.31;100666.94;5093703;28;20052;-66
2022/10/05 08:45:01;;;;;;;1.27;1.17;;;;;;;13.81;74.07;100666.16;5094049;28;20457;-66
2022/10/05 08:47:46;;;;;;;0.90;0.85;;;;;;;14.07;73.60;100663.63;5093713;28;20051;-66
2022/10/05 08:50:35;;;;;;;0.70;0.70;;;;;;;14.26;73.36;100669.63;5093966;28;20066;-66
2022/10/05 08:53:20;;;;;;;1.35;1.25;;;;;;;14.41;73.03;100669.66;5093679;28;20043;-66
2022/10/05 08:56:23;;;;;;;1.35;1.17;;;;;;;14.55;72.77;100673.94;5090647;28;20047;-67
2022/10/05 08:59:25;;;;;;;1.15;1.05;;;;;;;14.74;72.61;100669.63;5093590;28;20132;-66
2022/10/05 09:02:19;;;;;;;0.73;0.73;;;;;;;14.70;71.32;100663.66;5093235;28;20044;-67
2022/10/05 09:05:17;;;;;;;0.77;0.68;;;;;;;14.56;70.78;100664.53;5085046;28;20048;-66
2022/10/05 09:08:07;;;;;;;0.50;0.50;;;;;;;14.49;70.77;100653.38;5070872;28;20399;-67
2022/10/05 09:11:01;;;;;;;0.75;0.75;;;;;;;14.48;70.58;100661.97;5090629;28;20055;-66
2022/10/05 09:13:54;;;;;;;1.17;0.90;;;;;;;14.48;70.89;100659.38;5090436;28;20048;-66
2022/10/05 09:16:44;;;;;;;1.40;1.08;;;;;;;14.50;70.34;100649.97;5073298;28;20074;-66
2022/10/05 09:19:44;;;;;;;0.85;0.85;;;;;;;14.54;71.05;100645.69;5078776;28;20131;-67
2022/10/05 09:22:23;;;;;;;0.82;0.82;;;;;;;14.55;71.19;100639.69;5080191;28;20045;-65
2022/10/05 09:24:56;;;;;;;0.90;0.85;;;;;;;14.55;71.24;100640.53;5090759;28;20068;-68
2022/10/05 09:27:36;;;;;;;0.75;0.75;;;;;;;14.63;71.64;100640.53;5078641;28;20044;-65
2022/10/05 09:30:17;;;;;;;1.25;1.15;;;;;;;14.81;71.61;100649.91;5093086;28;20131;-65
2022/10/05 09:33:16;;;;;;;2.38;0.68;;;;;;;14.98;71.42;100650.72;5093658;28;20071;-65
2022/10/05 09:36:09;;;;;;;0.80;0.80;;;;;;;15.14;71.42;100660.09;5092915;28;20033;-65
2022/10/05 09:39:04;;;;;;;0.57;0.57;;;;;;;15.38;71.91;100649.69;5055883;28;20489;-65
2022/10/05 09:41:59;;;;;;;1.77;0.98;;;;;;;15.65;71.70;100641.88;5076508;28;20052;-66
2022/10/05 09:44:59;;;;;;;0.70;0.70;;;;;;;15.90;70.88;100646.00;5085505;28;20506;-65
2022/10/05 09:47:54;;;;;;;2.15;0.98;;;;;;;16.02;70.27;100651.06;5089242;28;20610;-65
2022/10/05 09:50:48;;;;;;;1.05;0.95;;;;;;;16.13;69.92;100657.84;5083587;28;20093;-65
2022/10/05 09:53:53;;;;;;;7.47;1.58;;;;;;;16.24;69.52;100651.75;5080704;28;20036;-65
2022/10/05 09:56:50;;;;;;;2.08;1.02;;;;;;;16.32;68.15;100649.09;5084282;28;20051;-65
2022/10/05 09:59:52;;;;;;;1.35;1.17;;;;;;;16.46;68.07;100653.25;5092410;28;20094;-66
2022/10/05 10:02:41;;;;;;;2.03;1.42;;;;;;;16.55;67.75;100657.53;5055175;28;20156;-65
2022/10/05 10:05:30;;;;;;;1.23;1.13;;;;;;;16.61;67.14;100654.88;5096276;28;20058;-65
2022/10/05 10:08:14;;;;;;;1.67;1.25;;;;;;;16.67;67.02;100657.41;5095596;28;20037;-65
2022/10/05 10:11:00;;;;;;;1.27;0.95;;;;;;;16.74;66.86;100654.78;5076506;28;20391;-66
2022/10/05 10:13:59;;;;;;;0.95;0.88;;;;;;;16.71;66.34;100649.63;5076183;28;20056;-65
2022/10/05 10:16:49;;;;;;;0.50;0.50;;;;;;;16.63;66.13;100645.41;5076303;28;20048;-65
2022/10/05 10:19:45;;;;;;;0.50;0.50;;;;;;;16.58;65.58;100636.91;5076147;28;20086;-65
2022/10/05 10:22:42;;;;;;;0.70;0.70;;;;;;;16.51;65.20;100642.91;5086716;28;20051;-65
2022/10/05 10:25:39;;;;;;;0.80;0.80;;;;;;;16.50;65.31;100641.22;5096956;28;20051;-65
2022/10/05 10:28:30;;;;;;;0.70;0.70;;;;;;;16.53;65.27;100641.22;5096227;28;20044;-66
2022/10/05 10:31:23;;;;;;;0.73;0.68;;;;;;;16.55;64.46;100636.91;5096384;28;20097;-66
2022/10/05 10:34:18;;;;;;;5.30;0.93;;;;;;;16.69;63.68;100645.38;5096315;28;20071;-66
2022/10/05 10:37:15;;;;;;;0.57;0.57;;;;;;;16.75;62.25;100643.56;5095888;28;20052;-66
2022/10/05 10:40:14;;;;;;;0.73;0.73;;;;;;;16.91;61.72;100641.69;5084430;28;20045;-67
2022/10/05 10:43:02;;;;;;;1.38;0.85;;;;;;;17.03;61.74;100635.53;5079906;28;20044;-66
2022/10/05 10:45:46;;;;;;;0.50;0.50;;;;;;;17.06;61.38;100644.06;5078211;28;20044;-66
2022/10/05 10:48:39;;;;;;;0.60;0.60;;;;;;;17.04;60.70;100639.81;5080885;28;20051;-67
2022/10/05 10:51:18;;;;;;;0.65;0.65;;;;;;;16.96;60.56;100634.75;5095856;28;20036;-67
2022/10/05 10:54:11;;;;;;;0.38;0.38;;;;;;;16.95;60.32;100627.88;5095617;28;20052;-66
2022/10/05 10:56:58;;;;;;;0.30;0.30;;;;;;;16.93;60.48;100624.47;5095902;28;20047;-65
2022/10/05 10:59:55;;;;;;;0.50;0.50;;;;;;;16.94;60.51;100618.41;5095699;28;20048;-66
2022/10/05 11:02:50;;;;;;;3.10;0.63;;;;;;;17.10;60.16;100621.69;5095635;28;20036;-66
2022/10/05 11:05:39;;;;;;;0.70;0.70;;;;;;;17.17;60.25;100598.38;5095551;28;20044;-66
2022/10/05 11:08:29;;;;;;;0.75;0.75;;;;;;;17.29;60.06;100597.38;5095479;28;20048;-66
2022/10/05 11:11:16;;;;;;;2.10;1.90;;;;;;;17.40;59.89;100596.34;5095287;28;20036;-67
2022/10/05 11:14:21;;;;;;;0.50;0.50;;;;;;;17.54;59.44;100579.84;5095024;28;20064;-66
2022/10/05 11:17:18;;;;;;;0.30;0.30;;;;;;;17.58;58.92;100584.94;5083823;28;20048;-66
2022/10/05 11:20:08;;;;;;;0.40;0.40;;;;;;;17.73;59.12;100576.13;5093619;28;20097;-67
2022/10/05 11:22:50;;;;;;;0.55;0.55;;;;;;;17.82;58.98;100569.06;5089701;28;20044;-66
2022/10/05 11:25:47;;;;;;;0.47;0.47;;;;;;;17.93;58.82;100571.47;5095473;28;20066;-67
2022/10/05 11:28:45;;;;;;;0.50;0.50;;;;;;;17.97;58.51;100562.81;5088522;28;20040;-66
2022/10/05 11:31:45;;;;;;;1.00;0.90;;;;;;;18.07;58.42;100560.03;5049586;28;20414;-66
2022/10/05 11:34:40;;;;;;;0.70;0.70;;;;;;;18.14;58.49;100555.59;5092348;28;20080;-67
2022/10/05 11:37:36;;;;;;;0.73;0.73;;;;;;;18.25;58.62;100564.03;5051173;28;20418;-66
2022/10/05 11:40:32;;;;;;;1.25;1.15;;;;;;;18.22;58.06;100568.38;5094825;28;20055;-66
2022/10/05 11:43:34;;;;;;;1.17;1.08;;;;;;;18.21;57.83;100562.34;5094839;28;20059;-67
2022/10/05 11:46:10;;;;;;;0.60;0.60;;;;;;;18.19;57.74;100564.13;5094452;28;20047;-67
2022/10/05 11:48:52;;;;;;;0.90;0.80;;;;;;;18.19;57.89;100553.78;5094670;28;20048;-67
2022/10/05 11:51:34;;;;;;;0.60;0.60;;;;;;;18.15;57.95;100562.47;5094718;28;20032;-66
2022/10/05 11:54:16;;;;;;;0.85;0.65;;;;;;;18.11;58.38;100570.31;5094600;28;20044;-66
2022/10/05 11:56:51;;;;;;;0.90;0.77;;;;;;;18.10;58.94;100564.28;5094577;28;20052;-67
2022/10/05 11:59:33;;;;;;;0.52;0.52;;;;;;;18.08;59.34;100568.63;5094619;28;20109;-67
2022/10/05 12:02:14;;;;;;;0.57;0.57;;;;;;;17.97;58.89;100573.16;5094165;28;20054;-66
2022/10/05 12:04:52;;;;;;;0.65;0.60;;;;;;;17.93;59.23;100561.13;5093766;28;20044;-66
2022/10/05 12:07:30;;;;;;;1.35;0.93;;;;;;;17.87;59.61;100566.41;5094291;28;20059;-67
2022/10/05 12:10:18;;;;;;;1.38;1.27;;;;;;;17.80;60.01;100559.66;5093901;28;20434;-66
2022/10/05 12:13:13;;;;;;;0.50;0.50;;;;;;;17.79;60.19;100563.09;5094664;28;20121;-67
2022/10/05 12:15:49;;;;;;;0.82;0.82;;;;;;;17.81;60.64;100553.59;5093923;28;20033;-67
2022/10/05 12:18:25;;;;;;;0.88;0.82;;;;;;;17.88;60.94;100557.78;5094172;28;20074;-68
2022/10/05 12:20:59;;;;;;;1.73;0.75;;;;;;;17.90;60.50;100556.03;5094390;28;20556;-68
2022/10/05 12:23:35;;;;;;;1.05;0.85;;;;;;;17.93;60.64;100563.72;5094098;28;20512;-67
2022/10/05 12:26:09;;;;;;;0.63;0.63;;;;;;;17.89;60.72;100562.06;5093628;28;20040;-68
2022/10/05 12:28:46;;;;;;;0.68;0.68;;;;;;;17.93;60.68;100554.25;5093917;28;20090;-67
2022/10/05 12:31:27;;;;;;;0.95;0.60;;;;;;;17.92;60.75;100549.94;5093855;28;20040;-66
2022/10/05 12:34:05;;;;;;;1.83;1.13;;;;;;;17.86;60.69;100544.88;5092458;28;20064;-68
2022/10/05 12:36:40;;;;;;;0.57;0.57;;;;;;;17.84;60.80;100551.81;5091657;28;20071;-68
2022/10/05 12:39:39;;;;;;;0.60;0.60;;;;;;;17.82;60.93;100553.56;5088443;28;20097;-68
2022/10/05 12:42:22;;;;;;;0.50;0.50;;;;;;;17.78;61.00;100553.66;5073329;28;20052;-68